sensor_id;sensor_type;location;lat;lon;timestamp;P1;durP1;ratioP1;P2;durP2;ratioP2
85472;SDS011;75874;41.386;22.136;2024-02-21T00:00:55;9.68;;;4.68;;
85472;SDS011;75874;41.386;22.136;2024-02-21T00:03:21;8.55;;;5.05;;
85472;SDS011;75874;41.386;22.136;2024-02-21T00:05:47;9.27;;;5.03;;
85472;SDS011;75874;41.386;22.136;2024-02-21T00:08:28;10.00;;;5.20;;
85472;SDS011;75874;41.386;22.136;2024-02-21T00:10:53;9.98;;;5.50;;
85472;SDS011;75874;41.386;22.136;2024-02-21T00:13:19;8.13;;;4.40;;
85472;SDS011;75874;41.386;22.136;2024-02-21T00:15:45;8.05;;;4.45;;
85472;SDS011;75874;41.386;22.136;2024-02-21T00:18:10;8.80;;;4.63;;
85472;SDS011;75874;41.386;22.136;2024-02-21T00:20:36;9.52;;;5.10;;
85472;SDS011;75874;41.386;22.136;2024-02-21T00:23:02;9.27;;;4.90;;
85472;SDS011;75874;41.386;22.136;2024-02-21T00:25:27;9.63;;;5.10;;
85472;SDS011;75874;41.386;22.136;2024-02-21T00:27:53;8.00;;;5.20;;
85472;SDS011;75874;41.386;22.136;2024-02-21T00:30:19;7.75;;;4.68;;
85472;SDS011;75874;41.386;22.136;2024-02-21T00:32:44;8.32;;;4.43;;
85472;SDS011;75874;41.386;22.136;2024-02-21T00:35:10;10.63;;;5.15;;
85472;SDS011;75874;41.386;22.136;2024-02-21T00:37:35;10.27;;;5.18;;
85472;SDS011;75874;41.386;22.136;2024-02-21T00:40:01;7.60;;;4.40;;
85472;SDS011;75874;41.386;22.136;2024-02-21T00:42:26;7.88;;;4.50;;
85472;SDS011;75874;41.386;22.136;2024-02-21T00:44:52;9.60;;;4.90;;
85472;SDS011;75874;41.386;22.136;2024-02-21T00:47:18;8.38;;;4.35;;
85472;SDS011;75874;41.386;22.136;2024-02-21T00:49:43;7.55;;;4.47;;
85472;SDS011;75874;41.386;22.136;2024-02-21T00:52:09;9.20;;;4.00;;
85472;SDS011;75874;41.386;22.136;2024-02-21T00:54:35;8.00;;;4.18;;
85472;SDS011;75874;41.386;22.136;2024-02-21T00:57:00;7.22;;;4.28;;
85472;SDS011;75874;41.386;22.136;2024-02-21T00:59:26;8.98;;;4.57;;
85472;SDS011;75874;41.386;22.136;2024-02-21T01:01:51;8.32;;;4.60;;
85472;SDS011;75874;41.386;22.136;2024-02-21T01:04:17;6.13;;;4.00;;
85472;SDS011;75874;41.386;22.136;2024-02-21T01:06:43;7.07;;;4.15;;
85472;SDS011;75874;41.386;22.136;2024-02-21T01:09:09;8.55;;;4.75;;
85472;SDS011;75874;41.386;22.136;2024-02-21T01:11:36;9.65;;;5.35;;
85472;SDS011;75874;41.386;22.136;2024-02-21T01:14:02;6.63;;;3.88;;
85472;SDS011;75874;41.386;22.136;2024-02-21T01:16:27;7.22;;;4.32;;
85472;SDS011;75874;41.386;22.136;2024-02-21T01:18:53;8.90;;;4.47;;
85472;SDS011;75874;41.386;22.136;2024-02-21T01:21:19;7.28;;;4.70;;
85472;SDS011;75874;41.386;22.136;2024-02-21T01:23:44;7.00;;;4.60;;
85472;SDS011;75874;41.386;22.136;2024-02-21T01:26:10;7.38;;;4.50;;
85472;SDS011;75874;41.386;22.136;2024-02-21T01:28:38;7.43;;;4.25;;
85472;SDS011;75874;41.386;22.136;2024-02-21T01:31:04;10.15;;;4.85;;
85472;SDS011;75874;41.386;22.136;2024-02-21T01:33:29;7.55;;;4.97;;
85472;SDS011;75874;41.386;22.136;2024-02-21T01:36:02;7.00;;;4.22;;
85472;SDS011;75874;41.386;22.136;2024-02-21T01:45:11;8.82;;;4.00;;
85472;SDS011;75874;41.386;22.136;2024-02-21T01:47:37;9.70;;;5.57;;
85472;SDS011;75874;41.386;22.136;2024-02-21T01:50:03;5.35;;;3.75;;
85472;SDS011;75874;41.386;22.136;2024-02-21T01:52:30;8.32;;;5.28;;
85472;SDS011;75874;41.386;22.136;2024-02-21T01:54:57;9.73;;;5.63;;
85472;SDS011;75874;41.386;22.136;2024-02-21T01:57:23;7.22;;;4.68;;
85472;SDS011;75874;41.386;22.136;2024-02-21T01:59:49;7.75;;;4.93;;
85472;SDS011;75874;41.386;22.136;2024-02-21T02:02:15;9.25;;;4.93;;
85472;SDS011;75874;41.386;22.136;2024-02-21T02:04:43;8.60;;;5.03;;
85472;SDS011;75874;41.386;22.136;2024-02-21T02:07:10;6.57;;;4.53;;
85472;SDS011;75874;41.386;22.136;2024-02-21T02:09:36;8.63;;;4.80;;
85472;SDS011;75874;41.386;22.136;2024-02-21T02:12:01;7.05;;;4.53;;
85472;SDS011;75874;41.386;22.136;2024-02-21T02:14:27;7.43;;;4.93;;
85472;SDS011;75874;41.386;22.136;2024-02-21T02:16:53;8.20;;;4.68;;
85472;SDS011;75874;41.386;22.136;2024-02-21T02:19:18;8.18;;;3.95;;
85472;SDS011;75874;41.386;22.136;2024-02-21T02:21:46;8.70;;;5.13;;
85472;SDS011;75874;41.386;22.136;2024-02-21T02:24:19;8.15;;;4.57;;
85472;SDS011;75874;41.386;22.136;2024-02-21T02:26:46;9.35;;;5.20;;
85472;SDS011;75874;41.386;22.136;2024-02-21T02:29:12;9.95;;;5.45;;
85472;SDS011;75874;41.386;22.136;2024-02-21T02:31:37;8.27;;;4.97;;
85472;SDS011;75874;41.386;22.136;2024-02-21T02:34:03;9.30;;;4.90;;
85472;SDS011;75874;41.386;22.136;2024-02-21T02:36:31;8.35;;;5.10;;
85472;SDS011;75874;41.386;22.136;2024-02-21T02:38:59;8.10;;;4.97;;
85472;SDS011;75874;41.386;22.136;2024-02-21T02:44:18;9.73;;;5.22;;
85472;SDS011;75874;41.386;22.136;2024-02-21T02:46:43;8.25;;;4.95;;
85472;SDS011;75874;41.386;22.136;2024-02-21T02:49:09;8.98;;;5.05;;
85472;SDS011;75874;41.386;22.136;2024-02-21T02:51:35;9.75;;;5.55;;
85472;SDS011;75874;41.386;22.136;2024-02-21T02:54:00;9.23;;;5.28;;
85472;SDS011;75874;41.386;22.136;2024-02-21T02:56:26;9.70;;;5.25;;
85472;SDS011;75874;41.386;22.136;2024-02-21T02:58:51;9.95;;;5.20;;
85472;SDS011;75874;41.386;22.136;2024-02-21T03:01:17;8.32;;;5.30;;
85472;SDS011;75874;41.386;22.136;2024-02-21T03:03:42;9.88;;;5.55;;
85472;SDS011;75874;41.386;22.136;2024-02-21T03:06:10;10.98;;;5.10;;
85472;SDS011;75874;41.386;22.136;2024-02-21T03:08:36;7.90;;;4.95;;
85472;SDS011;75874;41.386;22.136;2024-02-21T03:11:01;8.40;;;4.75;;
85472;SDS011;75874;41.386;22.136;2024-02-21T03:13:27;9.70;;;4.80;;
85472;SDS011;75874;41.386;22.136;2024-02-21T03:15:53;9.10;;;6.32;;
85472;SDS011;75874;41.386;22.136;2024-02-21T03:21:08;9.18;;;5.47;;
85472;SDS011;75874;41.386;22.136;2024-02-21T03:23:34;10.02;;;6.15;;
85472;SDS011;75874;41.386;22.136;2024-02-21T03:26:05;8.43;;;5.25;;
85472;SDS011;75874;41.386;22.136;2024-02-21T03:28:32;7.00;;;4.32;;
85472;SDS011;75874;41.386;22.136;2024-02-21T03:30:58;9.15;;;5.03;;
85472;SDS011;75874;41.386;22.136;2024-02-21T03:33:23;7.85;;;5.22;;
85472;SDS011;75874;41.386;22.136;2024-02-21T03:35:49;7.18;;;4.97;;
85472;SDS011;75874;41.386;22.136;2024-02-21T03:38:26;9.20;;;5.57;;
85472;SDS011;75874;41.386;22.136;2024-02-21T03:40:51;9.52;;;5.22;;
85472;SDS011;75874;41.386;22.136;2024-02-21T03:43:17;10.65;;;5.50;;
85472;SDS011;75874;41.386;22.136;2024-02-21T03:45:43;9.57;;;5.95;;
85472;SDS011;75874;41.386;22.136;2024-02-21T03:51:12;8.90;;;5.18;;
85472;SDS011;75874;41.386;22.136;2024-02-21T03:53:38;9.07;;;4.78;;
85472;SDS011;75874;41.386;22.136;2024-02-21T03:56:04;9.93;;;5.47;;
85472;SDS011;75874;41.386;22.136;2024-02-21T03:58:30;9.27;;;5.53;;
85472;SDS011;75874;41.386;22.136;2024-02-21T04:00:56;8.85;;;5.55;;
85472;SDS011;75874;41.386;22.136;2024-02-21T04:03:22;10.57;;;4.97;;
85472;SDS011;75874;41.386;22.136;2024-02-21T04:05:47;11.35;;;5.53;;
85472;SDS011;75874;41.386;22.136;2024-02-21T04:08:13;9.77;;;5.40;;
85472;SDS011;75874;41.386;22.136;2024-02-21T04:10:39;8.13;;;5.47;;
85472;SDS011;75874;41.386;22.136;2024-02-21T04:13:06;10.88;;;5.63;;
85472;SDS011;75874;41.386;22.136;2024-02-21T04:15:32;8.75;;;5.35;;
85472;SDS011;75874;41.386;22.136;2024-02-21T04:17:58;9.23;;;5.55;;
85472;SDS011;75874;41.386;22.136;2024-02-21T04:20:24;8.77;;;5.22;;
85472;SDS011;75874;41.386;22.136;2024-02-21T04:22:49;8.77;;;4.88;;
85472;SDS011;75874;41.386;22.136;2024-02-21T04:25:15;8.15;;;5.13;;
85472;SDS011;75874;41.386;22.136;2024-02-21T04:27:41;7.70;;;4.93;;
85472;SDS011;75874;41.386;22.136;2024-02-21T04:30:07;9.57;;;5.20;;
85472;SDS011;75874;41.386;22.136;2024-02-21T04:32:34;8.27;;;5.20;;
85472;SDS011;75874;41.386;22.136;2024-02-21T04:35:00;8.82;;;5.05;;
85472;SDS011;75874;41.386;22.136;2024-02-21T04:37:26;8.90;;;5.40;;
85472;SDS011;75874;41.386;22.136;2024-02-21T04:39:52;8.38;;;5.50;;
85472;SDS011;75874;41.386;22.136;2024-02-21T04:42:17;9.32;;;5.65;;
85472;SDS011;75874;41.386;22.136;2024-02-21T04:44:43;9.02;;;5.22;;
85472;SDS011;75874;41.386;22.136;2024-02-21T04:47:08;9.07;;;4.60;;
85472;SDS011;75874;41.386;22.136;2024-02-21T04:49:34;8.43;;;4.97;;
85472;SDS011;75874;41.386;22.136;2024-02-21T04:52:00;8.45;;;5.05;;
85472;SDS011;75874;41.386;22.136;2024-02-21T04:54:26;8.27;;;4.95;;
85472;SDS011;75874;41.386;22.136;2024-02-21T04:56:51;9.18;;;5.72;;
85472;SDS011;75874;41.386;22.136;2024-02-21T04:59:17;9.05;;;6.20;;
85472;SDS011;75874;41.386;22.136;2024-02-21T05:01:43;9.60;;;5.28;;
85472;SDS011;75874;41.386;22.136;2024-02-21T05:04:09;9.35;;;5.30;;
85472;SDS011;75874;41.386;22.136;2024-02-21T05:06:40;9.00;;;5.20;;
85472;SDS011;75874;41.386;22.136;2024-02-21T05:09:07;9.13;;;5.18;;
85472;SDS011;75874;41.386;22.136;2024-02-21T05:14:36;11.80;;;5.28;;
85472;SDS011;75874;41.386;22.136;2024-02-21T05:17:02;9.93;;;5.50;;
85472;SDS011;75874;41.386;22.136;2024-02-21T05:19:29;11.23;;;5.50;;
85472;SDS011;75874;41.386;22.136;2024-02-21T05:21:54;10.45;;;5.50;;
85472;SDS011;75874;41.386;22.136;2024-02-21T05:24:20;8.30;;;5.63;;
85472;SDS011;75874;41.386;22.136;2024-02-21T05:26:45;9.82;;;6.05;;
85472;SDS011;75874;41.386;22.136;2024-02-21T05:29:16;9.88;;;5.10;;
85472;SDS011;75874;41.386;22.136;2024-02-21T05:34:17;8.38;;;5.00;;
85472;SDS011;75874;41.386;22.136;2024-02-21T05:36:43;7.82;;;4.80;;
85472;SDS011;75874;41.386;22.136;2024-02-21T05:39:09;9.20;;;5.80;;
85472;SDS011;75874;41.386;22.136;2024-02-21T05:41:34;9.77;;;5.35;;
85472;SDS011;75874;41.386;22.136;2024-02-21T05:44:00;9.07;;;5.72;;
85472;SDS011;75874;41.386;22.136;2024-02-21T05:46:26;8.02;;;4.82;;
85472;SDS011;75874;41.386;22.136;2024-02-21T05:48:52;9.23;;;5.50;;
85472;SDS011;75874;41.386;22.136;2024-02-21T05:51:17;9.63;;;5.18;;
85472;SDS011;75874;41.386;22.136;2024-02-21T05:53:43;8.82;;;5.43;;
85472;SDS011;75874;41.386;22.136;2024-02-21T05:56:12;9.70;;;5.28;;
85472;SDS011;75874;41.386;22.136;2024-02-21T05:58:39;7.45;;;5.10;;
85472;SDS011;75874;41.386;22.136;2024-02-21T06:01:05;10.98;;;5.47;;
85472;SDS011;75874;41.386;22.136;2024-02-21T06:03:32;10.38;;;5.70;;
85472;SDS011;75874;41.386;22.136;2024-02-21T06:05:59;8.75;;;5.47;;
85472;SDS011;75874;41.386;22.136;2024-02-21T06:08:25;8.98;;;5.70;;
85472;SDS011;75874;41.386;22.136;2024-02-21T06:10:51;8.25;;;5.05;;
85472;SDS011;75874;41.386;22.136;2024-02-21T06:13:19;10.57;;;6.07;;
85472;SDS011;75874;41.386;22.136;2024-02-21T06:15:46;9.43;;;5.53;;
85472;SDS011;75874;41.386;22.136;2024-02-21T06:18:12;8.77;;;5.45;;
85472;SDS011;75874;41.386;22.136;2024-02-21T06:20:38;8.70;;;5.35;;
85472;SDS011;75874;41.386;22.136;2024-02-21T06:23:05;7.85;;;5.30;;
85472;SDS011;75874;41.386;22.136;2024-02-21T06:25:32;9.20;;;5.07;;
85472;SDS011;75874;41.386;22.136;2024-02-21T06:27:57;11.05;;;5.57;;
85472;SDS011;75874;41.386;22.136;2024-02-21T06:30:23;10.65;;;6.47;;
85472;SDS011;75874;41.386;22.136;2024-02-21T06:32:48;11.10;;;6.30;;
85472;SDS011;75874;41.386;22.136;2024-02-21T06:35:14;15.25;;;6.65;;
85472;SDS011;75874;41.386;22.136;2024-02-21T06:37:41;10.32;;;6.07;;
85472;SDS011;75874;41.386;22.136;2024-02-21T06:40:07;9.45;;;5.90;;
85472;SDS011;75874;41.386;22.136;2024-02-21T06:42:33;10.50;;;6.15;;
85472;SDS011;75874;41.386;22.136;2024-02-21T06:44:59;9.73;;;5.90;;
85472;SDS011;75874;41.386;22.136;2024-02-21T06:47:25;11.25;;;6.80;;
85472;SDS011;75874;41.386;22.136;2024-02-21T06:49:50;8.73;;;5.60;;
85472;SDS011;75874;41.386;22.136;2024-02-21T06:52:19;14.35;;;6.20;;
85472;SDS011;75874;41.386;22.136;2024-02-21T06:54:49;10.70;;;6.18;;
85472;SDS011;75874;41.386;22.136;2024-02-21T06:57:14;9.02;;;5.63;;
85472;SDS011;75874;41.386;22.136;2024-02-21T06:59:41;11.30;;;6.30;;
85472;SDS011;75874;41.386;22.136;2024-02-21T07:02:07;10.63;;;6.05;;
85472;SDS011;75874;41.386;22.136;2024-02-21T07:04:33;9.30;;;6.35;;
85472;SDS011;75874;41.386;22.136;2024-02-21T07:06:59;10.13;;;5.95;;
85472;SDS011;75874;41.386;22.136;2024-02-21T07:09:25;12.45;;;6.20;;
85472;SDS011;75874;41.386;22.136;2024-02-21T07:11:51;11.32;;;6.15;;
85472;SDS011;75874;41.386;22.136;2024-02-21T07:14:18;11.20;;;6.45;;
85472;SDS011;75874;41.386;22.136;2024-02-21T07:16:44;10.95;;;5.68;;
85472;SDS011;75874;41.386;22.136;2024-02-21T07:19:09;11.55;;;6.30;;
85472;SDS011;75874;41.386;22.136;2024-02-21T07:21:35;9.15;;;5.55;;
85472;SDS011;75874;41.386;22.136;2024-02-21T07:24:03;14.95;;;7.97;;
85472;SDS011;75874;41.386;22.136;2024-02-21T07:26:30;12.00;;;7.13;;
85472;SDS011;75874;41.386;22.136;2024-02-21T07:28:56;12.50;;;6.10;;
85472;SDS011;75874;41.386;22.136;2024-02-21T07:31:22;11.77;;;6.30;;
85472;SDS011;75874;41.386;22.136;2024-02-21T07:33:48;11.68;;;7.00;;
85472;SDS011;75874;41.386;22.136;2024-02-21T07:36:15;11.32;;;6.55;;
85472;SDS011;75874;41.386;22.136;2024-02-21T07:38:42;14.80;;;7.35;;
85472;SDS011;75874;41.386;22.136;2024-02-21T07:41:07;9.20;;;5.53;;
85472;SDS011;75874;41.386;22.136;2024-02-21T07:43:33;11.15;;;7.13;;
85472;SDS011;75874;41.386;22.136;2024-02-21T07:45:59;12.20;;;6.82;;
85472;SDS011;75874;41.386;22.136;2024-02-21T07:48:24;11.27;;;5.85;;
85472;SDS011;75874;41.386;22.136;2024-02-21T07:50:51;12.57;;;6.32;;
85472;SDS011;75874;41.386;22.136;2024-02-21T07:53:17;9.70;;;6.22;;
85472;SDS011;75874;41.386;22.136;2024-02-21T07:55:45;12.13;;;7.03;;
85472;SDS011;75874;41.386;22.136;2024-02-21T07:58:10;13.15;;;6.43;;
85472;SDS011;75874;41.386;22.136;2024-02-21T08:00:36;11.63;;;6.55;;
85472;SDS011;75874;41.386;22.136;2024-02-21T08:03:02;11.70;;;6.53;;
85472;SDS011;75874;41.386;22.136;2024-02-21T08:05:28;12.07;;;7.18;;
85472;SDS011;75874;41.386;22.136;2024-02-21T08:07:55;9.98;;;7.03;;
85472;SDS011;75874;41.386;22.136;2024-02-21T08:10:21;12.55;;;8.02;;
85472;SDS011;75874;41.386;22.136;2024-02-21T08:12:46;10.48;;;6.93;;
85472;SDS011;75874;41.386;22.136;2024-02-21T08:15:12;12.50;;;7.88;;
85472;SDS011;75874;41.386;22.136;2024-02-21T08:17:38;13.95;;;7.82;;
85472;SDS011;75874;41.386;22.136;2024-02-21T08:20:04;14.15;;;8.15;;
85472;SDS011;75874;41.386;22.136;2024-02-21T08:22:30;13.35;;;8.38;;
85472;SDS011;75874;41.386;22.136;2024-02-21T08:24:55;11.95;;;7.63;;
85472;SDS011;75874;41.386;22.136;2024-02-21T08:27:21;11.50;;;7.00;;
85472;SDS011;75874;41.386;22.136;2024-02-21T08:29:47;12.32;;;7.68;;
85472;SDS011;75874;41.386;22.136;2024-02-21T08:32:12;14.20;;;7.47;;
85472;SDS011;75874;41.386;22.136;2024-02-21T08:34:38;10.95;;;6.57;;
85472;SDS011;75874;41.386;22.136;2024-02-21T08:37:03;10.40;;;6.82;;
85472;SDS011;75874;41.386;22.136;2024-02-21T08:39:29;10.68;;;6.55;;
85472;SDS011;75874;41.386;22.136;2024-02-21T08:41:55;10.73;;;6.72;;
85472;SDS011;75874;41.386;22.136;2024-02-21T08:44:22;11.43;;;7.30;;
85472;SDS011;75874;41.386;22.136;2024-02-21T08:46:51;11.02;;;6.78;;
85472;SDS011;75874;41.386;22.136;2024-02-21T08:49:17;10.93;;;7.25;;
85472;SDS011;75874;41.386;22.136;2024-02-21T08:51:43;10.25;;;7.30;;
85472;SDS011;75874;41.386;22.136;2024-02-21T08:54:08;12.02;;;7.35;;
85472;SDS011;75874;41.386;22.136;2024-02-21T08:56:34;13.23;;;6.75;;
85472;SDS011;75874;41.386;22.136;2024-02-21T08:59:00;9.90;;;7.10;;
85472;SDS011;75874;41.386;22.136;2024-02-21T09:01:26;10.85;;;6.60;;
85472;SDS011;75874;41.386;22.136;2024-02-21T09:03:52;11.07;;;7.28;;
85472;SDS011;75874;41.386;22.136;2024-02-21T09:06:19;12.80;;;7.57;;
85472;SDS011;75874;41.386;22.136;2024-02-21T09:08:47;12.27;;;7.95;;
85472;SDS011;75874;41.386;22.136;2024-02-21T09:11:13;10.77;;;6.35;;
85472;SDS011;75874;41.386;22.136;2024-02-21T09:13:39;11.20;;;7.00;;
85472;SDS011;75874;41.386;22.136;2024-02-21T09:16:05;11.23;;;6.72;;
85472;SDS011;75874;41.386;22.136;2024-02-21T09:18:31;12.63;;;6.97;;
85472;SDS011;75874;41.386;22.136;2024-02-21T09:20:57;12.93;;;7.00;;
85472;SDS011;75874;41.386;22.136;2024-02-21T09:23:25;12.13;;;6.75;;
85472;SDS011;75874;41.386;22.136;2024-02-21T09:25:51;10.68;;;6.70;;
85472;SDS011;75874;41.386;22.136;2024-02-21T09:28:17;11.77;;;7.20;;
85472;SDS011;75874;41.386;22.136;2024-02-21T09:30:42;11.38;;;7.38;;
85472;SDS011;75874;41.386;22.136;2024-02-21T09:33:08;11.48;;;7.45;;
85472;SDS011;75874;41.386;22.136;2024-02-21T09:35:34;13.57;;;8.05;;
85472;SDS011;75874;41.386;22.136;2024-02-21T09:37:59;11.75;;;7.28;;
85472;SDS011;75874;41.386;22.136;2024-02-21T09:40:25;11.60;;;7.40;;
85472;SDS011;75874;41.386;22.136;2024-02-21T09:42:55;12.45;;;7.03;;
85472;SDS011;75874;41.386;22.136;2024-02-21T09:45:34;12.40;;;7.22;;
85472;SDS011;75874;41.386;22.136;2024-02-21T09:50:44;12.48;;;7.38;;
85472;SDS011;75874;41.386;22.136;2024-02-21T09:53:12;14.88;;;8.90;;
85472;SDS011;75874;41.386;22.136;2024-02-21T09:55:41;12.13;;;8.15;;
85472;SDS011;75874;41.386;22.136;2024-02-21T09:58:09;12.95;;;8.35;;
85472;SDS011;75874;41.386;22.136;2024-02-21T10:00:35;11.75;;;8.02;;
85472;SDS011;75874;41.386;22.136;2024-02-21T10:03:01;11.65;;;7.35;;
85472;SDS011;75874;41.386;22.136;2024-02-21T10:05:33;12.65;;;7.97;;
85472;SDS011;75874;41.386;22.136;2024-02-21T10:08:03;10.70;;;7.15;;
85472;SDS011;75874;41.386;22.136;2024-02-21T10:10:29;9.18;;;7.03;;
85472;SDS011;75874;41.386;22.136;2024-02-21T10:12:55;10.60;;;7.30;;
85472;SDS011;75874;41.386;22.136;2024-02-21T10:18:25;11.30;;;7.40;;
85472;SDS011;75874;41.386;22.136;2024-02-21T10:21:01;10.30;;;7.13;;
85472;SDS011;75874;41.386;22.136;2024-02-21T10:23:27;10.18;;;7.30;;
85472;SDS011;75874;41.386;22.136;2024-02-21T10:25:53;9.18;;;6.60;;
85472;SDS011;75874;41.386;22.136;2024-02-21T10:28:18;12.70;;;6.70;;
85472;SDS011;75874;41.386;22.136;2024-02-21T10:30:51;8.18;;;6.25;;
85472;SDS011;75874;41.386;22.136;2024-02-21T10:33:18;9.35;;;6.07;;
85472;SDS011;75874;41.386;22.136;2024-02-21T10:35:47;8.73;;;6.75;;
85472;SDS011;75874;41.386;22.136;2024-02-21T10:38:15;9.40;;;6.47;;
85472;SDS011;75874;41.386;22.136;2024-02-21T10:40:40;8.13;;;6.20;;
85472;SDS011;75874;41.386;22.136;2024-02-21T10:43:06;7.47;;;6.38;;
85472;SDS011;75874;41.386;22.136;2024-02-21T10:45:37;8.82;;;7.57;;
85472;SDS011;75874;41.386;22.136;2024-02-21T10:48:15;9.80;;;7.25;;
85472;SDS011;75874;41.386;22.136;2024-02-21T10:50:57;8.23;;;7.30;;
85472;SDS011;75874;41.386;22.136;2024-02-21T10:53:42;9.30;;;7.72;;
85472;SDS011;75874;41.386;22.136;2024-02-21T10:59:00;10.55;;;7.72;;
85472;SDS011;75874;41.386;22.136;2024-02-21T11:01:30;11.40;;;9.35;;
85472;SDS011;75874;41.386;22.136;2024-02-21T11:04:06;9.82;;;7.95;;
85472;SDS011;75874;41.386;22.136;2024-02-21T11:06:37;11.30;;;9.10;;
85472;SDS011;75874;41.386;22.136;2024-02-21T11:09:09;10.25;;;9.00;;
85472;SDS011;75874;41.386;22.136;2024-02-21T11:11:37;8.32;;;7.28;;
85472;SDS011;75874;41.386;22.136;2024-02-21T11:16:35;8.55;;;6.53;;
85472;SDS011;75874;41.386;22.136;2024-02-21T11:19:06;7.63;;;6.50;;
85472;SDS011;75874;41.386;22.136;2024-02-21T11:21:52;7.85;;;5.95;;
85472;SDS011;75874;41.386;22.136;2024-02-21T11:24:26;8.63;;;6.88;;
85472;SDS011;75874;41.386;22.136;2024-02-21T11:29:42;6.25;;;5.47;;
85472;SDS011;75874;41.386;22.136;2024-02-21T11:32:15;5.82;;;5.20;;
85472;SDS011;75874;41.386;22.136;2024-02-21T11:34:54;7.75;;;6.85;;
85472;SDS011;75874;41.386;22.136;2024-02-21T11:37:33;6.00;;;5.40;;
85472;SDS011;75874;41.386;22.136;2024-02-21T11:40:03;5.72;;;5.13;;
85472;SDS011;75874;41.386;22.136;2024-02-21T11:42:32;6.15;;;4.95;;
85472;SDS011;75874;41.386;22.136;2024-02-21T11:44:58;6.68;;;5.35;;
85472;SDS011;75874;41.386;22.136;2024-02-21T11:47:25;6.00;;;5.50;;
85472;SDS011;75874;41.386;22.136;2024-02-21T11:49:53;6.70;;;5.20;;
85472;SDS011;75874;41.386;22.136;2024-02-21T11:52:21;5.70;;;5.18;;
85472;SDS011;75874;41.386;22.136;2024-02-21T11:54:50;6.80;;;5.40;;
85472;SDS011;75874;41.386;22.136;2024-02-21T11:57:17;6.20;;;5.57;;
85472;SDS011;75874;41.386;22.136;2024-02-21T11:59:44;4.50;;;4.10;;
85472;SDS011;75874;41.386;22.136;2024-02-21T12:02:11;4.57;;;3.55;;
85472;SDS011;75874;41.386;22.136;2024-02-21T12:07:30;4.90;;;3.78;;
85472;SDS011;75874;41.386;22.136;2024-02-21T12:09:58;3.63;;;2.90;;
85472;SDS011;75874;41.386;22.136;2024-02-21T12:12:25;5.30;;;4.22;;
85472;SDS011;75874;41.386;22.136;2024-02-21T12:14:55;4.70;;;3.88;;
85472;SDS011;75874;41.386;22.136;2024-02-21T12:17:23;5.18;;;4.20;;
85472;SDS011;75874;41.386;22.136;2024-02-21T12:19:50;5.65;;;4.72;;
85472;SDS011;75874;41.386;22.136;2024-02-21T12:22:19;5.10;;;4.50;;
85472;SDS011;75874;41.386;22.136;2024-02-21T12:24:44;5.28;;;4.78;;
85472;SDS011;75874;41.386;22.136;2024-02-21T12:27:13;5.95;;;4.65;;
85472;SDS011;75874;41.386;22.136;2024-02-21T12:29:39;6.65;;;6.00;;
85472;SDS011;75874;41.386;22.136;2024-02-21T12:35:06;6.30;;;5.15;;
85472;SDS011;75874;41.386;22.136;2024-02-21T12:37:32;5.22;;;4.60;;
85472;SDS011;75874;41.386;22.136;2024-02-21T12:39:58;5.20;;;4.70;;
85472;SDS011;75874;41.386;22.136;2024-02-21T12:42:24;5.35;;;4.85;;
85472;SDS011;75874;41.386;22.136;2024-02-21T12:44:52;5.70;;;5.20;;
85472;SDS011;75874;41.386;22.136;2024-02-21T12:47:18;4.15;;;3.72;;
85472;SDS011;75874;41.386;22.136;2024-02-21T12:49:45;5.93;;;4.28;;
85472;SDS011;75874;41.386;22.136;2024-02-21T12:52:11;4.82;;;3.80;;
85472;SDS011;75874;41.386;22.136;2024-02-21T12:54:36;4.38;;;3.70;;
85472;SDS011;75874;41.386;22.136;2024-02-21T12:57:03;4.95;;;4.18;;
85472;SDS011;75874;41.386;22.136;2024-02-21T12:59:29;4.93;;;4.10;;
85472;SDS011;75874;41.386;22.136;2024-02-21T13:01:55;6.05;;;5.25;;
85472;SDS011;75874;41.386;22.136;2024-02-21T13:04:21;5.10;;;4.22;;
85472;SDS011;75874;41.386;22.136;2024-02-21T13:06:49;5.53;;;4.57;;
85472;SDS011;75874;41.386;22.136;2024-02-21T13:09:15;5.95;;;4.60;;
85472;SDS011;75874;41.386;22.136;2024-02-21T13:11:41;5.72;;;5.13;;
85472;SDS011;75874;41.386;22.136;2024-02-21T13:14:08;6.20;;;5.60;;
85472;SDS011;75874;41.386;22.136;2024-02-21T13:16:33;5.15;;;4.65;;
85472;SDS011;75874;41.386;22.136;2024-02-21T13:19:04;5.38;;;4.53;;
85472;SDS011;75874;41.386;22.136;2024-02-21T13:21:30;5.22;;;4.68;;
85472;SDS011;75874;41.386;22.136;2024-02-21T13:23:56;6.63;;;4.88;;
85472;SDS011;75874;41.386;22.136;2024-02-21T13:26:22;5.53;;;4.72;;
85472;SDS011;75874;41.386;22.136;2024-02-21T13:28:47;4.57;;;3.53;;
85472;SDS011;75874;41.386;22.136;2024-02-21T13:31:14;4.68;;;4.10;;
85472;SDS011;75874;41.386;22.136;2024-02-21T13:33:41;5.03;;;3.80;;
85472;SDS011;75874;41.386;22.136;2024-02-21T13:36:09;5.28;;;3.60;;
85472;SDS011;75874;41.386;22.136;2024-02-21T13:38:35;4.43;;;3.10;;
85472;SDS011;75874;41.386;22.136;2024-02-21T13:41:01;5.65;;;3.50;;
85472;SDS011;75874;41.386;22.136;2024-02-21T13:43:27;5.70;;;3.42;;
85472;SDS011;75874;41.386;22.136;2024-02-21T13:45:59;4.90;;;3.22;;
85472;SDS011;75874;41.386;22.136;2024-02-21T13:48:27;5.93;;;3.90;;
85472;SDS011;75874;41.386;22.136;2024-02-21T13:50:54;4.55;;;3.00;;
85472;SDS011;75874;41.386;22.136;2024-02-21T13:53:20;4.43;;;3.45;;
85472;SDS011;75874;41.386;22.136;2024-02-21T13:55:46;7.15;;;3.40;;
85472;SDS011;75874;41.386;22.136;2024-02-21T13:58:12;4.80;;;3.13;;
85472;SDS011;75874;41.386;22.136;2024-02-21T14:00:38;5.32;;;3.40;;
85472;SDS011;75874;41.386;22.136;2024-02-21T14:03:04;4.82;;;3.00;;
85472;SDS011;75874;41.386;22.136;2024-02-21T14:05:29;5.57;;;3.53;;
85472;SDS011;75874;41.386;22.136;2024-02-21T14:07:55;4.97;;;3.33;;
85472;SDS011;75874;41.386;22.136;2024-02-21T14:10:21;5.50;;;3.53;;
85472;SDS011;75874;41.386;22.136;2024-02-21T14:12:48;5.95;;;3.65;;
85472;SDS011;75874;41.386;22.136;2024-02-21T14:15:14;6.03;;;3.55;;
85472;SDS011;75874;41.386;22.136;2024-02-21T14:17:41;5.65;;;3.72;;
85472;SDS011;75874;41.386;22.136;2024-02-21T14:20:07;5.47;;;3.60;;
85472;SDS011;75874;41.386;22.136;2024-02-21T14:22:34;6.28;;;3.90;;
85472;SDS011;75874;41.386;22.136;2024-02-21T14:25:00;5.45;;;3.92;;
85472;SDS011;75874;41.386;22.136;2024-02-21T14:27:26;6.43;;;3.92;;
85472;SDS011;75874;41.386;22.136;2024-02-21T14:29:51;6.88;;;3.95;;
85472;SDS011;75874;41.386;22.136;2024-02-21T14:32:18;6.00;;;3.63;;
85472;SDS011;75874;41.386;22.136;2024-02-21T14:34:45;7.05;;;4.20;;
85472;SDS011;75874;41.386;22.136;2024-02-21T14:37:11;6.00;;;3.85;;
85472;SDS011;75874;41.386;22.136;2024-02-21T14:39:37;5.88;;;3.95;;
85472;SDS011;75874;41.386;22.136;2024-02-21T14:42:03;5.68;;;3.83;;
85472;SDS011;75874;41.386;22.136;2024-02-21T14:44:28;7.18;;;3.70;;
85472;SDS011;75874;41.386;22.136;2024-02-21T14:46:54;5.57;;;3.70;;
85472;SDS011;75874;41.386;22.136;2024-02-21T14:49:19;20.73;;;10.95;;
85472;SDS011;75874;41.386;22.136;2024-02-21T14:51:45;10.02;;;4.05;;
85472;SDS011;75874;41.386;22.136;2024-02-21T14:54:11;10.30;;;6.72;;
85472;SDS011;75874;41.386;22.136;2024-02-21T14:56:36;15.38;;;10.13;;
85472;SDS011;75874;41.386;22.136;2024-02-21T14:59:02;41.03;;;19.75;;
85472;SDS011;75874;41.386;22.136;2024-02-21T15:01:29;31.70;;;17.15;;
85472;SDS011;75874;41.386;22.136;2024-02-21T15:03:54;44.40;;;24.88;;
85472;SDS011;75874;41.386;22.136;2024-02-21T15:06:20;23.13;;;12.35;;
85472;SDS011;75874;41.386;22.136;2024-02-21T15:08:46;28.55;;;14.88;;